Time;durP1;ratioP1;P1;durP2;ratioP2;P2;SDS_P1;SDS_P2;PMS_P1;PMS_P2;Temp;Humidity;BMP_temperature;BMP_pressure;BME280_temperature;BME280_humidity;BME280_pressure;Samples;Min_cycle;Max_cycle;Signal;HPM_P1;HPM_P2
2024/02/06 00:01:10;;;;;;;7.47;6.03;;;9.20;99.90;;;;;;4977034;28;20493;-62
2024/02/06 00:03:39;;;;;;;7.13;5.63;;;9.10;99.90;;;;;;4974218;28;20503;-62
2024/02/06 00:06:08;;;;;;;6.77;5.60;;;9.20;99.90;;;;;;4977484;28;20592;-62
2024/02/06 00:08:37;;;;;;;6.67;4.93;;;9.20;99.90;;;;;;4971289;28;20484;-62
2024/02/06 00:11:07;;;;;;;5.90;5.30;;;9.20;99.90;;;;;;4978355;28;20493;-62
2024/02/06 00:13:35;;;;;;;7.70;5.53;;;9.20;99.90;;;;;;4977904;28;20469;-62
2024/02/06 00:16:11;;;;;;;8.03;5.50;;;9.30;99.90;;;;;;4977549;28;20503;-62
2024/02/06 00:18:41;;;;;;;7.30;5.30;;;9.40;99.90;;;;;;4972321;28;20504;-62
2024/02/06 00:21:09;;;;;;;9.00;5.57;;;9.30;99.90;;;;;;4975385;28;20572;-62
2024/02/06 00:23:37;;;;;;;5.43;4.87;;;9.40;99.90;;;;;;4977696;28;20987;-62
2024/02/06 00:26:05;;;;;;;6.83;5.40;;;9.30;99.90;;;;;;4975156;28;20568;-61
2024/02/06 00:28:33;;;;;;;6.43;5.70;;;9.30;99.90;;;;;;4974587;28;20569;-62
2024/02/06 00:31:01;;;;;;;9.07;5.30;;;9.30;99.90;;;;;;4970647;28;20491;-62
2024/02/06 00:33:29;;;;;;;6.00;5.40;;;9.30;99.90;;;;;;4974702;28;20480;-61
2024/02/06 00:36:00;;;;;;;7.03;5.30;;;9.30;99.90;;;;;;4975330;28;20496;-62
2024/02/06 00:38:28;;;;;;;6.90;5.40;;;9.30;99.90;;;;;;4975968;28;20548;-61
2024/02/06 00:40:57;;;;;;;6.83;5.00;;;9.30;99.90;;;;;;4971139;28;20609;-62
2024/02/06 00:43:25;;;;;;;8.17;4.90;;;9.30;99.90;;;;;;4970605;28;20815;-62
2024/02/06 00:45:53;;;;;;;8.57;5.47;;;9.30;99.90;;;;;;4978444;28;20489;-62
2024/02/06 00:48:21;;;;;;;11.50;5.43;;;9.40;99.90;;;;;;4974191;28;20476;-62
2024/02/06 00:50:49;;;;;;;8.03;5.07;;;9.40;99.90;;;;;;4968328;28;20571;-61
2024/02/06 00:53:19;;;;;;;6.57;5.30;;;9.40;99.90;;;;;;4972992;28;21028;-62
2024/02/06 00:55:47;;;;;;;8.80;5.87;;;9.40;99.90;;;;;;4971816;28;20519;-61
2024/02/06 00:58:15;;;;;;;6.07;5.10;;;9.40;99.90;;;;;;4972749;28;20967;-62
2024/02/06 01:00:43;;;;;;;10.00;4.90;;;9.40;99.90;;;;;;4971078;28;20904;-62
2024/02/06 01:03:11;;;;;;;7.80;5.73;;;9.40;99.90;;;;;;4971938;28;20524;-62
2024/02/06 01:05:39;;;;;;;7.30;4.73;;;9.40;99.90;;;;;;4974239;28;20526;-62
2024/02/06 01:08:07;;;;;;;6.10;5.20;;;9.40;99.90;;;;;;4972360;28;20573;-61
2024/02/06 01:10:37;;;;;;;5.70;4.90;;;9.40;99.90;;;;;;4969181;28;20476;-62
2024/02/06 01:13:05;;;;;;;7.80;4.97;;;9.40;99.90;;;;;;4970090;28;20471;-62
2024/02/06 01:15:34;;;;;;;6.33;5.17;;;9.50;99.90;;;;;;4971646;28;21025;-62
2024/02/06 01:18:04;;;;;;;10.93;5.80;;;9.50;99.90;;;;;;4976797;28;20495;-62
2024/02/06 01:20:32;;;;;;;5.93;5.07;;;9.50;99.90;;;;;;4971638;28;20478;-62
2024/02/06 01:23:00;;;;;;;7.10;5.10;;;9.50;99.90;;;;;;4970855;28;20493;-62
2024/02/06 01:25:30;;;;;;;5.80;5.10;;;9.50;99.90;;;;;;4969427;28;20502;-61
2024/02/06 01:28:00;;;;;;;8.83;5.57;;;9.50;99.90;;;;;;4971933;28;20481;-62
2024/02/06 01:30:29;;;;;;;8.60;5.20;;;9.50;99.90;;;;;;4973234;28;20894;-61
2024/02/06 01:32:57;;;;;;;6.73;5.40;;;9.40;99.90;;;;;;4972181;28;20478;-62
2024/02/06 01:35:25;;;;;;;7.87;4.83;;;9.50;99.90;;;;;;4982225;28;20494;-61
2024/02/06 01:37:53;;;;;;;8.20;5.20;;;9.50;99.90;;;;;;5000409;28;20461;-61
2024/02/06 01:40:21;;;;;;;8.70;5.03;;;9.50;99.90;;;;;;4986632;28;20469;-62
2024/02/06 01:42:49;;;;;;;9.00;5.43;;;9.50;99.90;;;;;;4970310;28;20496;-62
2024/02/06 01:45:19;;;;;;;6.83;5.20;;;9.50;99.90;;;;;;4971926;28;20497;-62
2024/02/06 01:47:47;;;;;;;7.63;5.10;;;9.50;99.90;;;;;;4973183;28;20498;-62
2024/02/06 01:50:16;;;;;;;8.53;4.97;;;9.50;99.90;;;;;;4973513;28;20547;-62
2024/02/06 01:52:45;;;;;;;8.70;4.60;;;9.50;99.90;;;;;;4971213;28;20493;-62
2024/02/06 01:55:13;;;;;;;6.60;5.00;;;9.60;99.90;;;;;;4973216;28;20587;-62
2024/02/06 01:57:41;;;;;;;6.77;4.83;;;9.60;99.90;;;;;;4972588;28;20505;-62
2024/02/06 02:00:10;;;;;;;10.90;5.87;;;9.60;99.90;;;;;;4974081;28;24658;-62
2024/02/06 02:02:40;;;;;;;5.97;5.10;;;9.60;99.90;;;;;;4976205;28;20485;-62
2024/02/06 02:05:08;;;;;;;8.73;5.33;;;9.60;99.90;;;;;;4971177;28;20493;-62
2024/02/06 02:07:37;;;;;;;7.67;4.70;;;9.60;99.90;;;;;;4968499;28;20555;-62
2024/02/06 02:10:05;;;;;;;6.63;5.63;;;9.50;99.90;;;;;;4969530;28;20504;-61
2024/02/06 02:12:35;;;;;;;10.50;5.50;;;9.50;99.90;;;;;;4971554;28;20489;-62
2024/02/06 02:15:04;;;;;;;6.53;5.40;;;9.50;99.90;;;;;;4970384;28;20508;-61
2024/02/06 02:17:32;;;;;;;7.17;5.43;;;9.50;99.90;;;;;;4968536;28;20579;-62
2024/02/06 02:20:01;;;;;;;7.50;5.40;;;9.50;99.90;;;;;;4975693;28;20478;-63
2024/02/06 02:22:31;;;;;;;9.13;5.90;;;9.50;99.90;;;;;;4974794;28;20490;-62
2024/02/06 02:24:59;;;;;;;9.23;5.57;;;9.50;99.90;;;;;;4975227;28;20492;-62
2024/02/06 02:27:27;;;;;;;8.30;5.80;;;9.50;99.90;;;;;;4975174;28;20561;-62
2024/02/06 02:29:57;;;;;;;9.73;6.53;;;9.50;99.90;;;;;;4975069;28;20476;-62
2024/02/06 02:32:25;;;;;;;10.43;6.20;;;9.50;99.90;;;;;;4972030;28;21557;-61
2024/02/06 02:34:53;;;;;;;6.30;5.60;;;9.50;99.90;;;;;;4979471;28;20550;-62
2024/02/06 02:37:21;;;;;;;8.40;5.93;;;9.50;99.90;;;;;;4975516;28;20478;-62
2024/02/06 02:39:51;;;;;;;12.40;6.17;;;9.50;99.90;;;;;;4976797;28;20487;-62
2024/02/06 02:42:19;;;;;;;6.93;5.87;;;9.50;99.90;;;;;;4975162;28;21010;-62
2024/02/06 02:44:47;;;;;;;11.17;5.90;;;9.50;99.90;;;;;;4972960;28;20584;-63
2024/02/06 02:47:15;;;;;;;8.50;5.60;;;9.50;99.90;;;;;;4974378;28;20474;-62
2024/02/06 02:49:43;;;;;;;10.50;5.63;;;9.50;99.90;;;;;;4976683;28;20544;-62
2024/02/06 02:52:11;;;;;;;7.10;6.40;;;9.50;99.90;;;;;;4975222;28;20562;-62
2024/02/06 02:54:39;;;;;;;6.40;5.70;;;9.50;99.90;;;;;;4974858;28;20560;-62
2024/02/06 02:57:08;;;;;;;9.83;6.30;;;9.50;99.90;;;;;;4990581;28;20508;-62
2024/02/06 02:59:36;;;;;;;12.73;6.23;;;9.50;99.90;;;;;;4999974;28;20517;-62
2024/02/06 03:02:04;;;;;;;8.33;5.70;;;9.50;99.90;;;;;;4999691;28;20494;-61
2024/02/06 03:04:32;;;;;;;9.70;6.27;;;9.50;99.90;;;;;;4999333;28;20470;-61
2024/02/06 03:07:00;;;;;;;8.93;5.50;;;9.50;99.90;;;;;;4998297;28;20468;-61
2024/02/06 03:09:28;;;;;;;7.13;5.17;;;9.50;99.90;;;;;;4993846;28;20493;-61
2024/02/06 03:11:56;;;;;;;8.60;5.67;;;9.40;99.90;;;;;;4994958;28;20497;-62
2024/02/06 03:14:26;;;;;;;6.87;4.67;;;9.50;99.90;;;;;;4977233;28;20479;-61
2024/02/06 03:16:54;;;;;;;9.63;5.80;;;9.50;99.90;;;;;;4975143;28;20468;-62
2024/02/06 03:19:22;;;;;;;7.57;5.50;;;9.60;99.90;;;;;;4977431;28;20568;-62
2024/02/06 03:21:50;;;;;;;7.50;5.50;;;9.60;99.90;;;;;;4976202;28;20563;-63
2024/02/06 03:24:18;;;;;;;8.50;5.20;;;9.60;99.90;;;;;;4971570;28;20493;-64
2024/02/06 03:26:48;;;;;;;7.43;4.87;;;9.60;99.90;;;;;;4976641;28;20628;-62
2024/02/06 03:29:16;;;;;;;8.00;4.90;;;9.60;99.90;;;;;;4974829;28;20477;-62
2024/02/06 03:31:45;;;;;;;8.20;5.50;;;9.60;99.90;;;;;;4980452;28;20621;-62
2024/02/06 03:34:13;;;;;;;9.47;4.63;;;9.60;99.90;;;;;;4980613;28;20504;-62
2024/02/06 03:36:42;;;;;;;8.40;5.43;;;9.70;99.90;;;;;;4979958;28;20485;-62
2024/02/06 03:39:12;;;;;;;11.80;5.80;;;9.60;99.90;;;;;;4979101;28;20916;-62
2024/02/06 03:41:40;;;;;;;5.83;4.93;;;9.60;99.90;;;;;;4981001;28;20481;-62
2024/02/06 03:44:08;;;;;;;7.77;4.80;;;9.60;99.90;;;;;;4979686;28;21219;-62
2024/02/06 03:46:36;;;;;;;7.27;4.83;;;9.60;99.90;;;;;;4981721;28;20493;-62
2024/02/06 03:49:06;;;;;;;7.83;5.03;;;9.60;99.90;;;;;;4985515;28;20465;-62
2024/02/06 03:51:34;;;;;;;8.60;6.00;;;9.60;99.90;;;;;;5004983;28;20476;-61
2024/02/06 03:54:02;;;;;;;9.07;4.57;;;9.60;99.90;;;;;;4999936;28;20529;-62
2024/02/06 03:56:30;;;;;;;10.90;5.60;;;9.60;99.90;;;;;;4986483;28;20600;-63
2024/02/06 03:58:58;;;;;;;8.00;5.33;;;9.60;99.90;;;;;;4981573;28;20549;-62
2024/02/06 04:01:26;;;;;;;10.50;5.70;;;9.60;99.90;;;;;;4977362;28;20946;-62
2024/02/06 04:03:54;;;;;;;10.27;6.10;;;9.60;99.90;;;;;;4983061;28;20493;-62
2024/02/06 04:06:24;;;;;;;7.40;5.07;;;9.60;99.90;;;;;;4980338;28;20583;-62
2024/02/06 04:08:52;;;;;;;7.40;4.63;;;9.60;99.90;;;;;;4980751;28;20535;-62
2024/02/06 04:11:22;;;;;;;7.57;4.80;;;9.70;99.90;;;;;;4978684;28;20481;-62
2024/02/06 04:13:50;;;;;;;11.40;5.27;;;9.70;99.90;;;;;;4980246;28;20815;-61
2024/02/06 04:16:18;;;;;;;7.43;4.70;;;9.70;99.90;;;;;;4980288;28;20622;-62
2024/02/06 04:18:46;;;;;;;6.10;4.77;;;9.70;99.90;;;;;;4980024;28;20484;-62
2024/02/06 04:21:14;;;;;;;7.90;4.57;;;9.70;99.90;;;;;;4979874;28;20513;-62
2024/02/06 04:23:44;;;;;;;6.80;5.40;;;9.60;99.90;;;;;;4982275;28;20571;-62
2024/02/06 04:26:12;;;;;;;7.23;4.50;;;9.70;99.90;;;;;;4981977;28;20498;-62
2024/02/06 04:28:40;;;;;;;9.60;4.30;;;9.70;99.90;;;;;;4980972;28;21021;-62
2024/02/06 04:31:08;;;;;;;8.47;4.77;;;9.60;99.90;;;;;;4976701;28;20845;-62
2024/02/06 04:33:37;;;;;;;8.23;4.97;;;9.70;99.90;;;;;;4980936;28;20477;-62
2024/02/06 04:36:05;;;;;;;7.03;4.63;;;9.70;99.90;;;;;;4981416;28;20497;-62
2024/02/06 04:38:33;;;;;;;8.70;4.47;;;9.70;99.90;;;;;;4981051;28;20560;-62
2024/02/06 04:41:03;;;;;;;9.47;4.87;;;9.70;99.90;;;;;;4978212;28;21014;-64
2024/02/06 04:43:31;;;;;;;6.63;4.40;;;9.70;99.90;;;;;;4979525;28;20520;-62
2024/02/06 04:45:59;;;;;;;6.53;4.50;;;9.70;99.90;;;;;;4981257;28;20918;-62
2024/02/06 04:48:27;;;;;;;7.10;4.23;;;9.70;99.90;;;;;;4986768;28;20484;-62
2024/02/06 04:50:56;;;;;;;8.03;4.40;;;9.80;99.90;;;;;;4983671;28;20478;-62
2024/02/06 04:53:23;;;;;;;6.93;4.40;;;9.80;99.90;;;;;;4980164;28;20612;-62
2024/02/06 04:55:51;;;;;;;8.20;4.57;;;9.80;99.90;;;;;;4979942;28;20503;-62
2024/02/06 04:58:21;;;;;;;9.40;4.83;;;9.80;99.90;;;;;;4980446;28;21061;-62
2024/02/06 05:00:49;;;;;;;6.90;4.10;;;9.80;99.90;;;;;;4976159;28;21104;-62
2024/02/06 05:03:25;;;;;;;8.17;4.00;;;9.80;99.90;;;;;;5113799;27;20917;-62
2024/02/06 05:05:53;;;;;;;7.43;4.67;;;9.80;99.90;;;;;;5111934;27;20579;-64
2024/02/06 05:08:21;;;;;;;7.80;4.70;;;9.80;99.90;;;;;;5106523;27;21001;-62
2024/02/06 05:10:52;;;;;;;6.20;4.10;;;9.80;99.90;;;;;;5104745;27;21969;-61
2024/02/06 05:13:20;;;;;;;11.53;4.70;;;9.80;99.90;;;;;;5093921;28;20548;-63
2024/02/06 05:15:48;;;;;;;9.13;5.13;;;9.80;99.90;;;;;;5092863;28;20497;-62
2024/02/06 05:18:16;;;;;;;9.70;4.97;;;9.80;99.90;;;;;;5092639;28;20577;-63
2024/02/06 05:20:45;;;;;;;8.20;5.00;;;9.80;99.90;;;;;;5091379;27;20467;-62
2024/02/06 05:23:14;;;;;;;9.17;4.63;;;9.80;99.90;;;;;;5093706;28;20579;-62
2024/02/06 05:25:42;;;;;;;6.60;4.83;;;9.80;99.90;;;;;;5090967;28;20563;-62
2024/02/06 05:28:10;;;;;;;10.13;5.30;;;9.80;99.90;;;;;;5091900;28;20472;-63
2024/02/06 05:30:38;;;;;;;10.50;5.13;;;9.70;99.90;;;;;;5089936;28;20460;-62
2024/02/06 05:33:06;;;;;;;10.27;5.13;;;9.70;99.90;;;;;;5094756;28;21004;-63
2024/02/06 05:35:34;;;;;;;7.77;4.50;;;9.70;99.90;;;;;;5089513;28;20490;-63
2024/02/06 05:38:04;;;;;;;11.40;5.50;;;9.80;99.90;;;;;;5088884;28;20583;-63
2024/02/06 05:40:32;;;;;;;5.97;4.87;;;9.80;99.90;;;;;;5091726;27;20476;-63
2024/02/06 05:43:00;;;;;;;6.37;4.70;;;9.80;99.90;;;;;;5085537;28;20488;-63
2024/02/06 05:45:28;;;;;;;8.13;4.97;;;9.70;99.90;;;;;;5090983;28;20493;-63
2024/02/06 05:47:59;;;;;;;8.30;5.27;;;9.80;99.90;;;;;;5087834;28;20556;-62
2024/02/06 05:50:29;;;;;;;9.57;5.37;;;9.80;99.90;;;;;;5090807;28;20460;-63
2024/02/06 05:52:58;;;;;;;8.33;5.63;;;9.70;99.90;;;;;;5090139;28;20480;-63
2024/02/06 05:55:28;;;;;;;7.40;4.80;;;9.70;99.90;;;;;;5091424;28;20632;-63
2024/02/06 05:57:57;;;;;;;9.30;5.10;;;9.70;99.90;;;;;;5088391;28;20484;-63
2024/02/06 06:00:26;;;;;;;7.80;5.23;;;9.70;99.90;;;;;;5091037;28;20468;-62
2024/02/06 06:02:54;;;;;;;10.33;5.83;;;9.70;99.90;;;;;;5084467;28;20516;-62
2024/02/06 06:05:23;;;;;;;9.00;5.23;;;9.70;99.90;;;;;;5090133;28;20673;-62
2024/02/06 06:07:52;;;;;;;12.60;5.67;;;9.80;99.90;;;;;;5089271;28;20479;-62
2024/02/06 06:10:20;;;;;;;8.67;4.87;;;9.80;99.90;;;;;;5089664;28;20464;-61
2024/02/06 06:12:49;;;;;;;8.67;5.20;;;9.80;99.90;;;;;;5083138;28;20690;-62
2024/02/06 06:15:18;;;;;;;7.87;5.30;;;9.80;99.90;;;;;;5073800;28;20492;-62
2024/02/06 06:17:46;;;;;;;8.73;6.00;;;9.80;99.90;;;;;;5065771;28;20559;-61
2024/02/06 06:20:14;;;;;;;7.70;5.27;;;9.80;99.90;;;;;;5074121;28;20499;-62
2024/02/06 06:22:42;;;;;;;10.27;5.43;;;9.80;99.90;;;;;;5074483;28;20473;-62
2024/02/06 06:25:10;;;;;;;8.93;5.50;;;9.80;99.90;;;;;;5070175;28;20785;-62
2024/02/06 06:27:41;;;;;;;11.30;5.13;;;9.80;99.90;;;;;;5070072;28;20477;-62
2024/02/06 06:30:12;;;;;;;7.70;4.90;;;9.80;99.90;;;;;;5076689;28;20845;-62
2024/02/06 06:32:41;;;;;;;10.23;4.90;;;9.80;99.90;;;;;;5074880;28;20599;-61
2024/02/06 06:35:09;;;;;;;10.60;4.90;;;9.80;99.90;;;;;;5075140;28;20520;-62
2024/02/06 06:37:37;;;;;;;7.30;5.40;;;9.80;99.90;;;;;;5075257;28;20488;-62
2024/02/06 06:40:08;;;;;;;8.60;5.33;;;9.80;99.90;;;;;;5071140;28;20588;-61
2024/02/06 06:42:36;;;;;;;8.33;4.93;;;9.80;99.90;;;;;;5073928;28;20570;-61
2024/02/06 06:45:05;;;;;;;10.60;5.47;;;9.80;99.90;;;;;;5078220;28;21020;-61
2024/02/06 06:47:35;;;;;;;8.60;5.40;;;9.80;99.90;;;;;;5076633;28;20559;-62
2024/02/06 06:50:03;;;;;;;6.60;4.77;;;9.80;99.90;;;;;;5076939;28;20956;-62
2024/02/06 06:52:31;;;;;;;9.40;4.67;;;9.90;99.90;;;;;;5076293;28;20556;-62
2024/02/06 06:54:59;;;;;;;11.80;5.00;;;9.90;99.90;;;;;;5076607;28;20585;-62
2024/02/06 06:57:27;;;;;;;6.10;4.70;;;9.90;99.90;;;;;;5077158;28;20469;-61
2024/02/06 06:59:55;;;;;;;9.03;5.20;;;9.80;99.90;;;;;;5077499;28;20468;-61
2024/02/06 07:02:23;;;;;;;10.53;5.80;;;9.90;99.90;;;;;;5073888;28;20903;-62
2024/02/06 07:04:53;;;;;;;10.17;5.67;;;9.90;99.90;;;;;;5076771;28;20499;-61
2024/02/06 07:07:21;;;;;;;9.83;4.90;;;9.80;99.90;;;;;;5079045;28;20538;-62
2024/02/06 07:09:49;;;;;;;12.77;5.43;;;9.80;99.90;;;;;;5077269;28;20568;-60
2024/02/06 07:12:17;;;;;;;9.20;6.10;;;9.80;99.90;;;;;;5071854;28;20490;-62
2024/02/06 07:14:45;;;;;;;12.13;5.20;;;9.80;99.90;;;;;;5073880;28;20476;-62
2024/02/06 07:17:13;;;;;;;11.00;5.50;;;9.80;99.90;;;;;;5071232;28;20490;-61
2024/02/06 07:19:41;;;;;;;9.43;5.33;;;9.80;99.90;;;;;;5074107;28;20458;-61
2024/02/06 07:22:11;;;;;;;7.90;5.23;;;9.80;99.90;;;;;;5078165;28;20512;-61
2024/02/06 07:24:39;;;;;;;7.60;5.10;;;9.70;99.90;;;;;;5075807;28;20470;-62
2024/02/06 07:27:07;;;;;;;8.00;5.43;;;9.70;99.90;;;;;;5075451;28;20967;-60
2024/02/06 07:29:35;;;;;;;8.70;5.13;;;9.70;99.90;;;;;;5074263;28;20862;-62
2024/02/06 07:32:04;;;;;;;10.43;5.40;;;9.70;99.90;;;;;;5073742;28;20474;-61
2024/02/06 07:34:32;;;;;;;10.43;5.73;;;9.70;99.90;;;;;;5069887;28;20465;-62
2024/02/06 07:37:00;;;;;;;7.43;5.00;;;9.70;99.90;;;;;;5076457;28;21089;-62
2024/02/06 07:39:29;;;;;;;14.33;6.67;;;9.70;99.90;;;;;;5077780;28;20480;-62
2024/02/06 07:41:57;;;;;;;7.47;5.10;;;9.70;99.90;;;;;;5076217;28;20572;-62
2024/02/06 07:44:25;;;;;;;9.80;5.27;;;9.70;99.90;;;;;;5075258;28;21150;-62
2024/02/06 07:46:53;;;;;;;6.07;4.80;;;9.60;99.90;;;;;;5075416;28;20488;-61
2024/02/06 07:49:21;;;;;;;9.90;4.83;;;9.60;99.90;;;;;;5070692;28;20556;-62
2024/02/06 07:51:50;;;;;;;8.93;5.30;;;9.60;99.90;;;;;;5077428;28;20489;-61
2024/02/06 07:54:18;;;;;;;11.90;4.80;;;9.60;99.90;;;;;;5076657;28;21028;-61
2024/02/06 07:56:47;;;;;;;10.23;5.47;;;9.60;99.90;;;;;;5076713;28;20493;-61
2024/02/06 07:59:16;;;;;;;8.63;4.67;;;9.60;99.90;;;;;;5077929;28;20906;-62
2024/02/06 08:01:44;;;;;;;7.70;4.53;;;9.60;99.90;;;;;;5076383;28;20568;-61
2024/02/06 08:04:12;;;;;;;10.13;4.83;;;9.60;99.90;;;;;;5075904;28;20673;-62
2024/02/06 08:06:40;;;;;;;10.20;4.73;;;9.60;99.90;;;;;;5075619;28;20576;-62
2024/02/06 08:09:09;;;;;;;6.60;4.40;;;9.60;99.90;;;;;;5076560;28;20476;-61
2024/02/06 08:11:37;;;;;;;7.47;4.13;;;9.60;99.90;;;;;;5074985;28;20985;-62
2024/02/06 08:14:12;;;;;;;8.07;3.97;;;9.60;99.90;;;;;;5076578;28;20526;-62
2024/02/06 08:16:40;;;;;;;6.73;4.23;;;9.60;99.90;;;;;;5075340;28;20488;-62
2024/02/06 08:19:08;;;;;;;7.17;3.57;;;9.60;99.90;;;;;;5076422;28;21702;-61
2024/02/06 08:21:37;;;;;;;7.80;3.63;;;9.60;99.90;;;;;;5075110;28;20472;-62
2024/02/06 08:24:06;;;;;;;8.27;4.00;;;9.70;99.90;;;;;;5077448;28;20899;-62
2024/02/06 08:26:34;;;;;;;6.60;3.77;;;9.70;99.90;;;;;;5075239;28;20983;-61
2024/02/06 08:29:02;;;;;;;7.30;4.33;;;9.60;99.90;;;;;;5077378;28;20617;-61
2024/02/06 08:31:32;;;;;;;11.20;3.70;;;9.60;99.90;;;;;;5074923;28;21039;-62
2024/02/06 08:34:01;;;;;;;6.20;3.97;;;9.60;99.90;;;;;;5076016;28;20995;-62
2024/02/06 08:36:29;;;;;;;5.60;3.43;;;9.60;99.90;;;;;;5075708;28;20496;-62
2024/02/06 08:38:57;;;;;;;6.03;4.27;;;9.60;99.90;;;;;;5078210;28;20782;-61
2024/02/06 08:41:28;;;;;;;5.83;4.10;;;9.70;99.90;;;;;;5073815;28;20473;-62
2024/02/06 08:43:57;;;;;;;6.53;4.03;;;9.60;99.90;;;;;;5075076;28;20515;-62
2024/02/06 08:46:27;;;;;;;7.77;4.30;;;9.60;99.90;;;;;;5076046;28;20489;-62
2024/02/06 08:48:59;;;;;;;7.10;4.17;;;9.60;99.90;;;;;;5077439;28;20469;-62
2024/02/06 08:51:27;;;;;;;6.80;4.47;;;9.70;99.90;;;;;;5076143;28;20493;-62
2024/02/06 08:53:55;;;;;;;5.63;4.37;;;9.60;99.90;;;;;;5076551;28;20562;-62
2024/02/06 08:56:25;;;;;;;7.37;4.50;;;9.60;99.90;;;;;;5075487;28;20505;-61
2024/02/06 08:58:53;;;;;;;7.37;4.40;;;9.70;99.90;;;;;;5078251;28;20509;-62
2024/02/06 09:01:23;;;;;;;7.00;4.33;;;9.70;99.90;;;;;;5076660;28;20571;-62
2024/02/06 09:03:52;;;;;;;8.73;4.27;;;9.70;99.90;;;;;;5077886;28;20486;-62
2024/02/06 09:06:29;;;;;;;9.50;4.53;;;9.70;99.90;;;;;;5077699;28;20484;-61
2024/02/06 09:08:58;;;;;;;5.37;4.20;;;9.70;99.90;;;;;;5078549;28;20468;-62
2024/02/06 09:11:27;;;;;;;6.33;4.40;;;9.70;99.90;;;;;;5075449;28;20503;-61
2024/02/06 09:13:55;;;;;;;6.67;5.00;;;9.70;99.90;;;;;;5076765;28;20820;-62
2024/02/06 09:16:23;;;;;;;7.93;4.50;;;9.70;99.90;;;;;;5075664;28;20492;-62
2024/02/06 09:18:52;;;;;;;8.43;4.70;;;9.70;99.90;;;;;;5078322;28;20559;-62
2024/02/06 09:21:23;;;;;;;7.20;4.57;;;9.60;99.90;;;;;;5078637;28;20843;-62
2024/02/06 09:23:52;;;;;;;7.80;5.13;;;9.60;99.90;;;;;;5075466;28;20965;-62
2024/02/06 09:26:20;;;;;;;8.63;4.90;;;9.60;99.90;;;;;;5078229;28;20559;-62
2024/02/06 09:28:48;;;;;;;8.73;4.83;;;9.60;99.90;;;;;;5076030;28;20547;-62
2024/02/06 09:31:16;;;;;;;5.70;4.40;;;9.60;99.90;;;;;;5078151;28;20480;-62
2024/02/06 09:33:44;;;;;;;6.03;4.37;;;9.70;99.90;;;;;;5075446;28;20968;-61
2024/02/06 09:36:13;;;;;;;6.40;4.53;;;9.70;99.90;;;;;;5074501;28;20546;-62
2024/02/06 09:38:41;;;;;;;8.37;4.67;;;9.70;99.90;;;;;;5075101;28;20492;-62
2024/02/06 09:41:10;;;;;;;6.97;4.63;;;9.70;99.90;;;;;;5075840;28;20484;-62
2024/02/06 09:43:41;;;;;;;5.63;4.70;;;9.60;99.90;;;;;;5076024;28;20467;-62
2024/02/06 09:46:09;;;;;;;8.53;4.57;;;9.60;99.90;;;;;;5077406;28;20500;-62
2024/02/06 09:48:37;;;;;;;7.53;4.30;;;9.60;99.90;;;;;;5077955;28;20856;-61
2024/02/06 09:51:06;;;;;;;5.27;4.70;;;9.70;99.90;;;;;;5079317;28;21043;-62
2024/02/06 09:53:37;;;;;;;8.43;4.30;;;9.70;99.90;;;;;;5079303;28;20503;-62
2024/02/06 09:56:06;;;;;;;7.63;4.50;;;9.70;99.90;;;;;;5080025;28;20567;-62
2024/02/06 09:58:37;;;;;;;4.40;3.80;;;9.80;99.90;;;;;;5079440;28;20917;-62
2024/02/06 10:01:09;;;;;;;5.90;4.10;;;9.70;99.90;;;;;;5078500;28;20476;-62
2024/02/06 10:03:40;;;;;;;7.37;4.63;;;9.80;99.90;;;;;;5080020;28;20468;-62
2024/02/06 10:06:12;;;;;;;5.67;3.90;;;9.70;99.90;;;;;;5080443;28;20486;-63
2024/02/06 10:08:40;;;;;;;5.83;3.50;;;9.80;99.90;;;;;;5078201;28;20484;-63
2024/02/06 10:11:09;;;;;;;4.47;3.50;;;9.80;99.90;;;;;;5078416;28;20919;-63
2024/02/06 10:13:39;;;;;;;6.03;3.70;;;9.80;99.90;;;;;;5078138;28;21004;-63
2024/02/06 10:16:07;;;;;;;27.43;15.47;;;9.80;99.90;;;;;;5080694;28;20472;-63
2024/02/06 10:18:35;;;;;;;7.40;4.40;;;9.80;99.90;;;;;;5080413;28;20482;-63
2024/02/06 10:21:04;;;;;;;5.00;3.73;;;9.80;99.90;;;;;;5076245;28;20504;-63
2024/02/06 10:23:33;;;;;;;4.90;3.70;;;9.80;99.90;;;;;;5079630;28;20857;-59
2024/02/06 10:26:03;;;;;;;8.80;4.90;;;9.80;99.90;;;;;;5079197;28;20997;-62
2024/02/06 10:28:31;;;;;;;6.20;5.50;;;9.80;99.90;;;;;;5078784;28;20501;-62
2024/02/06 10:31:10;;;;;;;7.20;5.00;;;9.80;99.90;;;;;;5078472;28;20472;-63
2024/02/06 10:33:39;;;;;;;10.17;7.50;;;9.80;99.90;;;;;;5079888;28;21056;-63
2024/02/06 10:36:09;;;;;;;6.77;3.90;;;9.80;99.90;;;;;;5080804;28;21031;-63
2024/02/06 10:38:37;;;;;;;4.07;3.70;;;9.90;99.90;;;;;;5075742;28;20579;-63
2024/02/06 10:41:08;;;;;;;7.37;4.00;;;9.90;99.90;;;;;;5079324;28;20496;-63
2024/02/06 10:43:51;;;;;;;4.70;3.50;;;9.90;99.90;;;;;;5079908;28;20469;-63
2024/02/06 10:46:23;;;;;;;5.43;4.00;;;9.90;99.90;;;;;;5078976;28;20500;-62
2024/02/06 10:48:52;;;;;;;5.17;3.40;;;9.90;99.90;;;;;;5078113;28;20937;-62
2024/02/06 10:51:24;;;;;;;13.77;9.27;;;9.90;99.90;;;;;;5079468;28;21039;-61
2024/02/06 10:53:57;;;;;;;6.57;4.27;;;9.90;99.90;;;;;;5079114;28;20571;-61
2024/02/06 10:56:25;;;;;;;4.43;3.77;;;9.90;99.90;;;;;;5080945;28;20569;-62
2024/02/06 10:58:57;;;;;;;6.00;3.80;;;9.90;99.90;;;;;;5079516;28;20494;-62
2024/02/06 11:01:34;;;;;;;5.97;3.40;;;9.90;99.90;;;;;;5078352;28;20568;-62
2024/02/06 11:04:08;;;;;;;6.00;4.43;;;9.90;99.90;;;;;;5079771;28;20475;-62
2024/02/06 11:06:42;;;;;;;4.57;3.47;;;9.90;99.90;;;;;;5077725;28;20583;-61
2024/02/06 11:09:14;;;;;;;4.67;3.57;;;9.90;99.90;;;;;;5076102;28;20475;-61
2024/02/06 11:11:42;;;;;;;3.93;3.50;;;9.90;99.90;;;;;;5072958;28;20583;-62
2024/02/06 11:14:15;;;;;;;8.40;6.47;;;9.90;99.90;;;;;;5073369;28;20488;-62
2024/02/06 11:16:50;;;;;;;6.23;4.00;;;9.90;99.90;;;;;;5076352;28;20481;-62
2024/02/06 11:19:26;;;;;;;5.97;3.70;;;9.90;99.90;;;;;;5079263;28;20477;-62
2024/02/06 11:22:04;;;;;;;9.10;5.00;;;10.00;99.90;;;;;;5075280;28;20485;-62
2024/02/06 11:24:34;;;;;;;6.07;3.60;;;10.00;99.90;;;;;;5076857;28;20471;-60
2024/02/06 11:27:03;;;;;;;7.13;3.77;;;10.00;99.90;;;;;;5080943;28;20537;-62
2024/02/06 11:29:31;;;;;;;5.13;3.33;;;10.00;99.90;;;;;;5076238;28;20471;-62
2024/02/06 11:32:01;;;;;;;5.83;3.70;;;10.00;99.90;;;;;;5076930;28;20516;-62
2024/02/06 11:34:29;;;;;;;6.73;3.07;;;10.10;99.90;;;;;;5077933;28;20467;-61
2024/02/06 11:37:00;;;;;;;8.57;3.90;;;10.10;99.90;;;;;;5079704;28;21284;-62
2024/02/06 11:39:29;;;;;;;8.77;4.33;;;10.10;99.90;;;;;;5079016;28;20966;-62
2024/02/06 11:42:01;;;;;;;5.93;4.20;;;10.10;99.90;;;;;;5076735;28;20488;-62
2024/02/06 11:44:29;;;;;;;3.80;3.30;;;10.10;99.90;;;;;;5077755;28;20523;-61
2024/02/06 11:46:59;;;;;;;3.83;3.43;;;10.10;99.90;;;;;;5077220;28;20577;-62
2024/02/06 11:49:29;;;;;;;7.30;4.33;;;10.10;99.90;;;;;;5078489;28;20465;-62
2024/02/06 11:51:58;;;;;;;5.50;3.90;;;10.10;99.90;;;;;;5077730;28;20851;-62
2024/02/06 11:54:26;;;;;;;6.27;3.53;;;10.20;99.90;;;;;;5076104;28;20552;-62
2024/02/06 11:56:58;;;;;;;5.33;3.73;;;10.20;99.90;;;;;;5077945;28;20485;-60
2024/02/06 11:59:26;;;;;;;5.60;3.27;;;10.20;99.90;;;;;;5074603;28;20884;-62
2024/02/06 12:01:54;;;;;;;6.40;3.60;;;10.20;99.90;;;;;;5075061;28;20484;-62
2024/02/06 12:04:24;;;;;;;4.97;3.33;;;10.30;99.90;;;;;;5075615;28;20480;-62
2024/02/06 12:07:03;;;;;;;6.03;3.10;;;10.30;99.90;;;;;;5078075;28;20554;-62
2024/02/06 12:09:38;;;;;;;8.47;3.80;;;10.30;99.90;;;;;;5076536;28;20470;-60
2024/02/06 12:12:07;;;;;;;7.90;3.30;;;10.40;99.90;;;;;;5075782;28;20570;-62
2024/02/06 12:14:35;;;;;;;4.03;3.00;;;10.40;99.90;;;;;;5073377;28;20545;-62
2024/02/06 12:17:05;;;;;;;5.60;3.23;;;10.40;99.90;;;;;;5075184;28;20543;-61
2024/02/06 12:19:34;;;;;;;5.80;2.70;;;10.50;99.90;;;;;;5071441;28;20507;-62
2024/02/06 12:22:07;;;;;;;5.23;3.00;;;10.50;99.90;;;;;;5075929;28;20568;-62
2024/02/06 12:24:35;;;;;;;6.13;3.43;;;10.50;99.90;;;;;;5076738;28;20584;-62
2024/02/06 12:27:04;;;;;;;5.43;2.90;;;10.50;99.90;;;;;;5078825;28;20489;-62
2024/02/06 12:29:37;;;;;;;5.77;3.53;;;10.50;99.90;;;;;;5076625;28;20515;-62
2024/02/06 12:32:05;;;;;;;7.17;3.07;;;10.50;99.90;;;;;;5076549;28;20477;-62
2024/02/06 12:34:33;;;;;;;4.00;2.80;;;10.60;99.90;;;;;;5076524;28;20521;-62
2024/02/06 12:37:04;;;;;;;5.23;3.20;;;10.60;99.90;;;;;;5076976;28;20466;-61
2024/02/06 12:39:32;;;;;;;6.00;3.40;;;10.60;99.90;;;;;;5076099;28;20469;-61
2024/02/06 12:42:01;;;;;;;6.23;3.67;;;10.70;99.90;;;;;;5074193;28;20613;-63
2024/02/06 12:44:30;;;;;;;5.20;2.63;;;10.70;99.90;;;;;;5075690;28;20992;-62
2024/02/06 12:47:01;;;;;;;5.30;2.70;;;10.80;99.90;;;;;;5078218;28;20484;-63
2024/02/06 12:49:29;;;;;;;6.33;3.10;;;10.80;99.90;;;;;;5075218;28;20468;-63
2024/02/06 12:52:01;;;;;;;6.60;2.80;;;10.80;99.90;;;;;;5076755;28;20567;-63
2024/02/06 12:54:31;;;;;;;7.53;2.83;;;10.80;99.90;;;;;;5076180;28;20476;-63
2024/02/06 12:56:59;;;;;;;6.30;3.00;;;10.80;99.90;;;;;;5077651;28;20527;-63
2024/02/06 12:59:27;;;;;;;5.47;3.27;;;10.80;99.90;;;;;;5073144;28;20497;-63
2024/02/06 13:02:06;;;;;;;4.87;3.10;;;10.80;99.90;;;;;;5077150;28;20686;-62
2024/02/06 13:04:34;;;;;;;6.10;2.90;;;10.80;99.90;;;;;;5069599;28;20504;-62